Old Milo, Arkansas
Current Conditions -  °F | °C
As of 5:35 AM on Friday 31 Oct 2014 (Local Time) from KBQP Reporting Station
Clear Clear  
Wind Chill: 10°   Ceiling: Unl
Heat Index: 10°   Visibility: 10mi
Dew Point:   Wind: 6mph
Humidity: 85%   Direction: 310°NW
Pressure: 30.06"   Gusts: NA
Location:  33.1762°N, 91.7595°W
Report Text: KBQP 311035Z AUTO 31005KT 10SM CLR 10/08 A3006 RMK AO2 T01020077
Loading
Personal Weather Stations






























Interactive Weather Map
Tropical Storm Tracking
New forecast layout! Learn more

10-Day Weather Forecast

Advertisements
Track Severe Weather on mobile